Time,TemperatureF,DewpointF,PressureIn,WindDirection,WindDirectionDegrees,WindSpeedMPH,WindSpeedGustMPH,Humidity,HourlyPrecipIn,Conditions,Clouds,dailyrainin,SolarRadiationWatts/m^2,SoftwareType,DateUTC
2013-07-01 00:22:00,62.0,-99.9,-100.00,WNW,291,0.0,5.0,0,0.00,,,0.00,0.000000,,2013-07-01 07:22:00,
2013-07-01 00:34:00,62.0,-99.9,-100.00,WNW,291,0.0,5.0,0,0.00,,,0.00,0.000000,,2013-07-01 07:34:00,
2013-07-01 00:43:00,62.0,-99.9,-100.00,WNW,291,0.0,5.0,0,0.00,,,0.00,0.000000,,2013-07-01 07:43:00,
2013-07-01 00:53:00,62.0,-99.9,-100.00,WNW,291,0.0,5.0,0,0.00,,,0.00,0.000000,,2013-07-01 07:53:00,
2013-07-01 01:02:00,62.0,-99.9,-100.00,WNW,291,0.0,5.0,0,0.00,,,0.00,0.000000,,2013-07-01 08:02:00,
2013-07-01 01:33:00,59.0,-99.9,-100.00,SSE,159,3.0,5.0,0,0.00,,,0.00,0.000000,,2013-07-01 08:33:00,
2013-07-01 01:43:00,59.0,-99.9,-100.00,SSE,159,3.0,5.0,0,0.00,,,0.00,0.000000,,2013-07-01 08:43:00,
2013-07-01 01:52:00,59.0,-99.9,-100.00,SSE,159,3.0,5.0,0,0.00,,,0.00,0.000000,,2013-07-01 08:52:00,
2013-07-01 02:03:00,68.0,-99.9,-100.00,South,181,5.0,5.0,0,-99.99,,,0.00,0.000000,,2013-07-01 09:03:00,
2013-07-01 02:22:00,68.0,-99.9,-100.00,South,181,5.0,5.0,0,-99.99,,,0.00,0.000000,,2013-07-01 09:22:00,
2013-07-01 02:34:00,68.0,-99.9,-100.00,South,181,5.0,5.0,0,-99.99,,,0.00,0.000000,,2013-07-01 09:34:00,
2013-07-01 02:43:00,68.0,-99.9,-100.00,South,181,5.0,5.0,0,-99.99,,,0.00,0.000000,,2013-07-01 09:43:00,
2013-07-01 02:53:00,68.0,-99.9,-100.00,South,181,5.0,5.0,0,-99.99,,,0.00,0.000000,,2013-07-01 09:53:00,
2013-07-01 03:22:00,65.0,-99.9,-100.00,ENE,75,0.0,14.0,0,0.00,,,0.00,0.000000,,2013-07-01 10:22:00,
2013-07-01 03:33:00,65.0,-99.9,-100.00,ENE,75,0.0,14.0,0,0.00,,,0.00,0.000000,,2013-07-01 10:33:00,
2013-07-01 03:43:00,65.0,-99.9,-100.00,ENE,75,0.0,14.0,0,0.00,,,0.00,0.000000,,2013-07-01 10:43:00,
2013-07-01 03:52:00,65.0,-99.9,-100.00,ENE,75,0.0,14.0,0,0.00,,,0.00,0.000000,,2013-07-01 10:52:00,
2013-07-01 04:02:00,65.0,-99.9,-100.00,ENE,75,0.0,14.0,0,0.00,,,0.00,0.000000,,2013-07-01 11:02:00,
2013-07-01 04:22:00,63.0,-99.9,-100.00,SSW,213,1.0,8.0,0,0.00,,,0.00,0.000000,,2013-07-01 11:22:00,
2013-07-01 04:34:00,63.0,-99.9,-100.00,SSW,213,1.0,8.0,0,0.00,,,0.00,0.000000,,2013-07-01 11:34:00,
2013-07-01 04:43:00,63.0,-99.9,-100.00,SSW,213,1.0,8.0,0,0.00,,,0.00,0.000000,,2013-07-01 11:43:00,
2013-07-01 04:52:00,63.0,-99.9,-100.00,SSW,213,1.0,8.0,0,0.00,,,0.00,0.000000,,2013-07-01 11:52:00,
2013-07-01 05:01:00,63.0,-99.9,-100.00,SSW,213,1.0,8.0,0,0.00,,,0.00,0.000000,,2013-07-01 12:01:00,
2013-07-01 05:22:00,61.0,-99.9,-100.00,SSW,210,1.0,7.0,0,0.00,,,0.00,0.000000,,2013-07-01 12:22:00,
2013-07-01 05:33:00,61.0,-99.9,-100.00,SSW,210,1.0,7.0,0,0.00,,,0.00,0.000000,,2013-07-01 12:33:00,
2013-07-01 05:43:00,61.0,-99.9,-100.00,SSW,210,1.0,7.0,0,0.00,,,0.00,0.000000,,2013-07-01 12:43:00,
2013-07-01 05:53:00,61.0,-99.9,-100.00,SSW,210,1.0,7.0,0,0.00,,,0.00,0.000000,,2013-07-01 12:53:00,
2013-07-01 06:02:00,61.0,-99.9,-100.00,SSW,210,1.0,7.0,0,0.00,,,0.00,0.000000,,2013-07-01 13:02:00,
2013-07-01 06:23:00,64.0,-99.9,-100.00,South,185,5.0,8.0,0,0.00,,,0.00,35.000000,,2013-07-01 13:23:00,
2013-07-01 06:33:00,64.0,-99.9,-100.00,South,185,5.0,8.0,0,0.00,,,0.00,35.000000,,2013-07-01 13:33:00,
2013-07-01 06:43:00,64.0,-99.9,-100.00,South,185,5.0,8.0,0,0.00,,,0.00,35.000000,,2013-07-01 13:43:00,
2013-07-01 06:53:00,64.0,-99.9,-100.00,South,185,5.0,8.0,0,0.00,,,0.00,35.000000,,2013-07-01 13:53:00,
2013-07-01 07:02:00,64.0,-99.9,-100.00,South,185,5.0,8.0,0,0.00,,,0.00,35.000000,,2013-07-01 14:02:00,
2013-07-01 07:34:00,68.0,-99.9,-100.00,SSW,194,4.0,8.0,0,0.00,,,0.00,184.000000,,2013-07-01 14:34:00,
2013-07-01 07:43:00,68.0,-99.9,-100.00,SSW,194,4.0,8.0,0,0.00,,,0.00,184.000000,,2013-07-01 14:43:00,
2013-07-01 07:53:00,68.0,-99.9,-100.00,SSW,194,4.0,8.0,0,0.00,,,0.00,184.000000,,2013-07-01 14:53:00,
2013-07-01 08:02:00,68.0,-99.9,-100.00,SSW,194,4.0,8.0,0,0.00,,,0.00,184.000000,,2013-07-01 15:02:00,
2013-07-01 08:44:00,76.0,-99.9,-100.00,SE,128,2.0,10.0,0,0.00,,,0.00,392.000000,,2013-07-01 15:44:00,
2013-07-01 08:53:00,76.0,-99.9,-100.00,SE,128,2.0,10.0,0,0.00,,,0.00,392.000000,,2013-07-01 15:53:00,
2013-07-01 09:01:00,76.0,-99.9,-100.00,SE,128,2.0,10.0,0,0.00,,,0.00,392.000000,,2013-07-01 16:01:00,
2013-07-01 10:34:00,86.0,-99.9,-100.00,NNW,342,4.0,8.0,0,-99.99,,,0.00,812.000000,,2013-07-01 17:34:00,
2013-07-01 10:43:00,86.0,-99.9,-100.00,NNW,342,4.0,8.0,0,-99.99,,,0.00,812.000000,,2013-07-01 17:43:00,
2013-07-01 10:53:00,86.0,-99.9,-100.00,NNW,342,4.0,8.0,0,-99.99,,,0.00,812.000000,,2013-07-01 17:53:00,
2013-07-01 11:02:00,86.0,-99.9,-100.00,NNW,342,4.0,8.0,0,-99.99,,,0.00,812.000000,,2013-07-01 18:02:00,
2013-07-01 11:33:00,86.0,-99.9,-100.00,North,3,7.0,9.0,0,0.00,,,0.00,961.000000,,2013-07-01 18:33:00,
2013-07-01 11:44:00,86.0,-99.9,-100.00,North,3,7.0,9.0,0,0.00,,,0.00,961.000000,,2013-07-01 18:44:00,
2013-07-01 11:53:00,86.0,-99.9,-100.00,North,3,7.0,9.0,0,0.00,,,0.00,961.000000,,2013-07-01 18:53:00,
2013-07-01 12:02:00,86.0,-99.9,-100.00,North,3,7.0,9.0,0,0.00,,,0.00,961.000000,,2013-07-01 19:02:00,
2013-07-01 12:34:00,89.0,-99.9,-100.00,NNW,339,6.0,13.0,0,0.00,,,0.00,1066.000000,,2013-07-01 19:34:00,
2013-07-01 12:44:00,89.0,-99.9,-100.00,NNW,339,6.0,13.0,0,0.00,,,0.00,1066.000000,,2013-07-01 19:44:00,
2013-07-01 12:53:00,89.0,-99.9,-100.00,NNW,339,6.0,13.0,0,0.00,,,0.00,1066.000000,,2013-07-01 19:53:00,
2013-07-01 13:02:00,89.0,-99.9,-100.00,NNW,339,6.0,13.0,0,0.00,,,0.00,1066.000000,,2013-07-01 20:02:00,
2013-07-01 13:34:00,92.0,-99.9,-100.00,East,82,5.0,18.0,0,0.00,,,0.00,1105.000000,,2013-07-01 20:34:00,
2013-07-01 13:43:00,92.0,-99.9,-100.00,East,82,5.0,18.0,0,0.00,,,0.00,1105.000000,,2013-07-01 20:43:00,
2013-07-01 13:52:00,92.0,-99.9,-100.00,East,82,5.0,18.0,0,0.00,,,0.00,1105.000000,,2013-07-01 20:52:00,
2013-07-01 14:34:00,91.0,-99.9,-100.00,ENE,68,7.0,19.0,0,0.00,,,0.00,906.000000,,2013-07-01 21:34:00,
2013-07-01 14:44:00,91.0,-99.9,-100.00,ENE,68,7.0,19.0,0,0.00,,,0.00,906.000000,,2013-07-01 21:44:00,
2013-07-01 14:53:00,91.0,-99.9,-100.00,ENE,68,7.0,19.0,0,0.00,,,0.00,906.000000,,2013-07-01 21:53:00,
2013-07-01 15:02:00,91.0,-99.9,-100.00,ENE,68,7.0,19.0,0,0.00,,,0.00,906.000000,,2013-07-01 22:02:00,
2013-07-01 15:24:00,90.0,-99.9,-100.00,NE,42,7.0,17.0,0,0.00,,,0.00,797.000000,,2013-07-01 22:24:00,
2013-07-01 15:33:00,90.0,-99.9,-100.00,NE,42,7.0,17.0,0,0.00,,,0.00,797.000000,,2013-07-01 22:33:00,
2013-07-01 15:43:00,90.0,-99.9,-100.00,NE,42,7.0,17.0,0,0.00,,,0.00,797.000000,,2013-07-01 22:43:00,
2013-07-01 15:53:00,90.0,-99.9,-100.00,NE,42,7.0,17.0,0,0.00,,,0.00,797.000000,,2013-07-01 22:53:00,
2013-07-01 16:02:00,90.0,-99.9,-100.00,NE,42,7.0,17.0,0,0.00,,,0.00,797.000000,,2013-07-01 23:02:00,
2013-07-01 16:33:00,91.0,-99.9,-100.00,ENE,67,7.0,20.0,0,0.00,,,0.00,726.000000,,2013-07-01 23:33:00,
2013-07-01 16:44:00,91.0,-99.9,-100.00,ENE,67,7.0,20.0,0,0.00,,,0.00,726.000000,,2013-07-01 23:44:00,
2013-07-01 16:53:00,91.0,-99.9,-100.00,ENE,67,7.0,20.0,0,0.00,,,0.00,726.000000,,2013-07-01 23:53:00,
2013-07-01 17:01:00,91.0,-99.9,-100.00,ENE,67,7.0,20.0,0,0.00,,,0.00,726.000000,,2013-07-02 00:01:00,
2013-07-01 17:34:00,92.0,-99.9,-100.00,NE,36,4.0,18.0,0,0.00,,,0.00,699.000000,,2013-07-02 00:34:00,
2013-07-01 17:43:00,92.0,-99.9,-100.00,NE,36,4.0,18.0,0,0.00,,,0.00,699.000000,,2013-07-02 00:43:00,
2013-07-01 17:53:00,92.0,-99.9,-100.00,NE,36,4.0,18.0,0,0.00,,,0.00,699.000000,,2013-07-02 00:53:00,
2013-07-01 18:01:00,92.0,-99.9,-100.00,NE,36,4.0,18.0,0,0.00,,,0.00,699.000000,,2013-07-02 01:01:00,
2013-07-01 18:33:00,84.0,-99.9,-100.00,SSE,157,6.0,19.0,0,0.00,,,0.00,201.000000,,2013-07-02 01:33:00,
2013-07-01 18:43:00,84.0,-99.9,-100.00,SSE,157,6.0,19.0,0,0.00,,,0.00,201.000000,,2013-07-02 01:43:00,
2013-07-01 18:53:00,84.0,-99.9,-100.00,SSE,157,6.0,19.0,0,0.00,,,0.00,201.000000,,2013-07-02 01:53:00,
2013-07-01 19:02:00,84.0,-99.9,-100.00,SSE,157,6.0,19.0,0,0.00,,,0.00,201.000000,,2013-07-02 02:02:00,
2013-07-01 19:34:00,81.0,-99.9,-100.00,South,185,4.0,19.0,0,0.00,,,0.00,69.000000,,2013-07-02 02:34:00,
2013-07-01 19:43:00,81.0,-99.9,-100.00,South,185,4.0,19.0,0,0.00,,,0.00,69.000000,,2013-07-02 02:43:00,
2013-07-01 19:53:00,81.0,-99.9,-100.00,South,185,4.0,19.0,0,0.00,,,0.00,69.000000,,2013-07-02 02:53:00,
2013-07-01 20:02:00,81.0,-99.9,-100.00,South,185,4.0,19.0,0,0.00,,,0.00,69.000000,,2013-07-02 03:02:00,
2013-07-01 20:24:00,73.0,-99.9,-100.00,SSE,160,3.0,13.0,0,0.00,,,0.00,11.000000,,2013-07-02 03:24:00,
2013-07-01 20:33:00,73.0,-99.9,-100.00,SSE,160,3.0,13.0,0,0.00,,,0.00,11.000000,,2013-07-02 03:33:00,
2013-07-01 20:43:00,73.0,-99.9,-100.00,SSE,160,3.0,13.0,0,0.00,,,0.00,11.000000,,2013-07-02 03:43:00,
2013-07-01 20:53:00,73.0,-99.9,-100.00,SSE,160,3.0,13.0,0,0.00,,,0.00,11.000000,,2013-07-02 03:53:00,
2013-07-01 21:02:00,73.0,-99.9,-100.00,SSE,160,3.0,13.0,0,0.00,,,0.00,11.000000,,2013-07-02 04:02:00,
2013-07-01 21:22:00,69.0,-99.9,-100.00,SSE,155,1.0,8.0,0,0.00,,,0.00,0.000000,,2013-07-02 04:22:00,
2013-07-01 21:32:00,69.0,-99.9,-100.00,SSE,155,1.0,8.0,0,0.00,,,0.00,0.000000,,2013-07-02 04:32:00,
2013-07-01 21:42:00,69.0,-99.9,-100.00,SSE,155,1.0,8.0,0,0.00,,,0.00,0.000000,,2013-07-02 04:42:00,
2013-07-01 21:54:00,69.0,-99.9,-100.00,SSE,155,1.0,8.0,0,0.00,,,0.00,0.000000,,2013-07-02 04:54:00,
2013-07-01 22:02:00,69.0,-99.9,-100.00,SSE,155,1.0,8.0,0,0.00,,,0.00,0.000000,,2013-07-02 05:02:00,
2013-07-01 22:22:00,68.0,-99.9,-100.00,South,184,1.0,7.0,0,0.00,,,0.00,0.000000,,2013-07-02 05:22:00,
2013-07-01 22:32:00,68.0,-99.9,-100.00,South,184,1.0,7.0,0,0.00,,,0.00,0.000000,,2013-07-02 05:32:00,
2013-07-01 22:43:00,68.0,-99.9,-100.00,South,184,1.0,7.0,0,0.00,,,0.00,0.000000,,2013-07-02 05:43:00,
2013-07-01 22:53:00,68.0,-99.9,-100.00,South,184,1.0,7.0,0,0.00,,,0.00,0.000000,,2013-07-02 05:53:00,
2013-07-01 23:02:00,68.0,-99.9,-100.00,South,184,1.0,7.0,0,0.00,,,0.00,0.000000,,2013-07-02 06:02:00,
2013-07-01 23:23:00,62.0,-99.9,-100.00,South,186,1.0,7.0,0,0.00,,,0.00,0.000000,,2013-07-02 06:23:00,
2013-07-01 23:34:00,62.0,-99.9,-100.00,South,186,1.0,7.0,0,0.00,,,0.00,0.000000,,2013-07-02 06:34:00,
2013-07-01 23:43:00,62.0,-99.9,-100.00,South,186,1.0,7.0,0,0.00,,,0.00,0.000000,,2013-07-02 06:43:00,
2013-07-01 23:53:00,62.0,-99.9,-100.00,South,186,1.0,7.0,0,0.00,,,0.00,0.000000,,2013-07-02 06:53:00,